Detall de PIREP

Printer-friendly versionPDF version

[2009/11/11 22:35:00]
Flight IATA:CT2312
Pilot Number:026
Company ICAO:CAT
Aircraft Type:DC85/A
PAX:136
Departing Airport: LIEA
Destination Airport: LIBP
Alternate Airport:LIRA
Online: VATSIM
Route:MINKA UL5 ANEDA
Flight Level:FL320
No Slew and time accel
No pause
Crash detect
Detect pilot in Cockpit between each 30 and 45 minutes
22:35 Zero fuel Weight: 188327 Lbs, Fuel Weight: 30011 Lbs
22:35 VATSIM:LIEA 112150Z VRB03KT 9999 BKN020 09/08 Q1013
22:35 VATSIM:LIBP 112150Z 20004KT CAVOK 06/05 Q1010 RMK VIS MIN 9999
22:35 VOICE CATALONIAN
22:41 Parking Brakes off
22:48 Take-off
22:48 Take off Weight: 217299 Lbs
22:48 Wind: 279º @ 005 Knots Heading: 199º
22:48 POS N40º 37´ 18´´ E008º 17´ 04´´
22:48 Flaps:3 at 188 Knots
22:48 Gear Up: 188 Knots
22:48 Flaps:2 at 182 Knots
22:49 Flaps:1 at 169 Knots
22:49 Flaps:0 at 192 Knots
23:02 TOC
23:02 Fuel Weight: 24448 Lb
23
:03 Wind:242º@034 Knots Heading: 068º Ground Speed: 425 Knots Altitude 31988 ft
23:15 TOD
23:15 Fuel Weight: 21752 Lb
23:18 Wind:013º@010 Knots Heading: 065º Ground Speed: 452 Knots Altitude 27650 ft
23:33 Wind:220º@008 Knots Heading: 068º Ground Speed: 277 Knots Altitude 6263 ft
23:39 Gear Down: 202 Knots
23:39 Flaps:1 at 201 Knots
23:40 Flaps:2 at 168 Knots
23:40 Flaps:3 at 171 Knots
23:41 Flaps:4 at 175 Knots
23:41 Flaps:5 at 182 Knots
23:41 TouchDown:Rate -270 ft/min Speed: 131 Knots
23:42 VATSIM:LIBP 112250Z 22004KT CAVOK 05/04 Q1010 RMK VIS MIN 9999
23:42 Land
23:42 Wind:219º@004 Knots
23:42 Heading: 212º
23:42 Flight Duration: 00:54
23:42 Landing Weight: 207166 Lbs
23:42 POS N42º 25´ 40´´ E014º 10´ 46´´
23:47 Parking brakes on
23:47 Block to Block Duration: 01:06
23:47 Final Fuel: 18339 Lbls
23:47 Spent Fuel: 11671 Lbls
23:47 Flight Length: 32
8 NM
23:47 TOD Land Length: 145 NM

Exportar CSV

Powered by Drupal - Modified by Danger4k